Southern Lily — 9VJK4 — position and weather

sailwx.info

Track history (hours):
 
Tides and Currents Weather Stations Pressure Air Temp Water Temp Dewpoint Dewpoint Depression Visibility Wind Speed Wind Dir Waves Ship Positions

Southern Lily

Last reported at 2015-Apr-16 12:16 UTC. Time now 2015-Apr-22 01:46 UTC.
Position S 36°12' E 174°58'.

Length 146 m; draft 6.8 m.

Type: Cargo ship. MMSI: 565050000.

Date/timePositionNaut miles runAvg speedWind from/ knotsBaromVisibWave heightAir tempDewpointWater temp
2015-Apr-16 12:16S 36°12' E 174°58'6 8.9
2015-Apr-16 11:33S 36°18' E 174°59'9 9.1
2015-Apr-16 10:34S 36°27' E 174°60'9 9.3
2015-Apr-16 09:34S 36°36' E 174°58'10 9.6
2015-Apr-16 08:33S 36°44' E 174°51'7 7.1
2015-Apr-16 07:31S 36°51' E 174°47'0 0.0
2015-Apr-16 06:31S 36°51' E 174°47'0 0.0
2015-Apr-16 05:28S 36°51' E 174°47'0 0.0
2015-Apr-16 04:31S 36°51' E 174°47'0 0.0
2015-Apr-16 03:31S 36°51' E 174°47'0 0.0
2015-Apr-16 02:31S 36°51' E 174°47'0 0.0
2015-Apr-16 01:31S 36°51' E 174°47'0 0.0
2015-Apr-16 00:31S 36°51' E 174°47'0 0.0
2015-Apr-15 23:22S 36°51' E 174°47'0 0.0
2015-Apr-15 22:31S 36°51' E 174°47'0 0.0
2015-Apr-15 21:31S 36°51' E 174°47'0 0.0
2015-Apr-15 20:31S 36°51' E 174°47'0 0.0
2015-Apr-15 19:28S 36°51' E 174°47'0 0.0
2015-Apr-15 18:28S 36°51' E 174°47'0 0.0
2015-Apr-15 17:22S 36°51' E 174°47'0 0.0
2015-Apr-15 16:28S 36°51' E 174°47'0 0.0
2015-Apr-15 15:31S 36°51' E 174°47'0 0.0
2015-Apr-15 14:31S 36°51' E 174°47'0 0.0
2015-Apr-15 13:31S 36°51' E 174°47'0 0.0
2015-Apr-15 12:31S 36°51' E 174°47'0 0.0
2015-Apr-15 11:28S 36°51' E 174°47'0 0.0
2015-Apr-15 10:31S 36°51' E 174°47'0 0.0
2015-Apr-15 09:31S 36°51' E 174°47'0 0.0
2015-Apr-15 08:31S 36°51' E 174°47'0 0.0
2015-Apr-15 07:31S 36°51' E 174°47'0 0.0
2015-Apr-15 06:31S 36°51' E 174°47'0 0.0
2015-Apr-15 05:28S 36°51' E 174°47'0 0.0
2015-Apr-15 04:31S 36°51' E 174°47'0 0.0
2015-Apr-15 03:31S 36°51' E 174°47'0 0.0
2015-Apr-15 02:31S 36°51' E 174°47'0 0.0
2015-Apr-15 01:31S 36°51' E 174°47'0 0.0
2015-Apr-15 00:31S 36°51' E 174°47'0 0.0
2015-Apr-14 23:28S 36°51' E 174°47'0 0.0
2015-Apr-14 22:31S 36°51' E 174°47'0 0.0
2015-Apr-14 21:31S 36°51' E 174°47'0 0.0
2015-Apr-14 20:31S 36°51' E 174°47'0 0.0
2015-Apr-14 19:31S 36°51' E 174°47'0 0.0
2015-Apr-14 18:31S 36°51' E 174°47'0 0.0
2015-Apr-14 17:28S 36°51' E 174°47'0 0.0
2015-Apr-14 16:31S 36°51' E 174°47'0 0.0
2015-Apr-14 15:31S 36°51' E 174°47'0 0.0
2015-Apr-14 14:31S 36°51' E 174°47'0 0.0
2015-Apr-14 13:31S 36°51' E 174°47'0 0.0
2015-Apr-14 12:31S 36°51' E 174°47'0 0.0
2015-Apr-14 11:28S 36°51' E 174°47'0 0.1
2015-Apr-14 10:32S 36°51' E 174°47'0 0.0
2015-Apr-14 09:32S 36°51' E 174°47'0 0.0
2015-Apr-14 08:32S 36°51' E 174°47'0 0.0
2015-Apr-14 07:32S 36°51' E 174°47'0 0.0
2015-Apr-14 06:32S 36°51' E 174°47'0 0.0
2015-Apr-14 05:32S 36°51' E 174°47'0 0.0
2015-Apr-14 04:32S 36°51' E 174°47'0 0.0
2015-Apr-14 03:32S 36°51' E 174°47'0 0.0
2015-Apr-14 02:32S 36°51' E 174°47'0 0.0
2015-Apr-14 01:32S 36°51' E 174°47'0 0.0
2015-Apr-14 00:32S 36°51' E 174°47'0 0.0
2015-Apr-13 23:32S 36°51' E 174°47'0 0.0
2015-Apr-13 22:32S 36°51' E 174°47'0 0.0
2015-Apr-13 21:32S 36°51' E 174°47'0 0.0
2015-Apr-13 20:32S 36°51' E 174°47'0 0.0
2015-Apr-13 19:32S 36°51' E 174°47'0 0.0
2015-Apr-13 18:32S 36°51' E 174°47'0 0.0
2015-Apr-13 17:32S 36°51' E 174°47'0 0.0
2015-Apr-13 16:32S 36°51' E 174°47'0 0.0
2015-Apr-13 15:29S 36°51' E 174°47'0 0.0
2015-Apr-13 14:32S 36°51' E 174°47'0 0.0
2015-Apr-13 13:29S 36°51' E 174°47'5 5.8
2015-Apr-13 12:33S 36°46' E 174°49'8 8.4
2015-Apr-13 11:33S 36°39' E 174°56'1413.7
2015-Apr-13 10:34S 36°26' E 175°00'1817.4
2015-Apr-13 09:33S 36°09' E 174°57'  
Track history (hours):
 
Tides and Currents Weather Stations Pressure Air Temp Water Temp Dewpoint Dewpoint Depression Visibility Wind Speed Wind Dir Waves Ship Positions

Southern Lily

Last reported at 2015-Apr-16 12:16 UTC. Time now 2015-Apr-22 01:46 UTC.
Position S 36°12' E 174°58'.

Length 146 m; draft 6.8 m.

Type: Cargo ship. MMSI: 565050000.

Date/timePositionNaut miles runAvg speedWind from/ knotsBaromVisibWave heightAir tempDewpointWater temp
2015-Apr-16 12:16S 36°12' E 174°58'6 8.9
2015-Apr-16 11:33S 36°18' E 174°59'9 9.1
2015-Apr-16 10:34S 36°27' E 174°60'9 9.3
2015-Apr-16 09:34S 36°36' E 174°58'10 9.6
2015-Apr-16 08:33S 36°44' E 174°51'7 7.1
2015-Apr-16 07:31S 36°51' E 174°47'0 0.0
2015-Apr-16 06:31S 36°51' E 174°47'0 0.0
2015-Apr-16 05:28S 36°51' E 174°47'0 0.0
2015-Apr-16 04:31S 36°51' E 174°47'0 0.0
2015-Apr-16 03:31S 36°51' E 174°47'0 0.0
2015-Apr-16 02:31S 36°51' E 174°47'0 0.0
2015-Apr-16 01:31S 36°51' E 174°47'0 0.0
2015-Apr-16 00:31S 36°51' E 174°47'0 0.0
2015-Apr-15 23:22S 36°51' E 174°47'0 0.0
2015-Apr-15 22:31S 36°51' E 174°47'0 0.0
2015-Apr-15 21:31S 36°51' E 174°47'0 0.0
2015-Apr-15 20:31S 36°51' E 174°47'0 0.0
2015-Apr-15 19:28S 36°51' E 174°47'0 0.0
2015-Apr-15 18:28S 36°51' E 174°47'0 0.0
2015-Apr-15 17:22S 36°51' E 174°47'0 0.0
2015-Apr-15 16:28S 36°51' E 174°47'0 0.0
2015-Apr-15 15:31S 36°51' E 174°47'0 0.0
2015-Apr-15 14:31S 36°51' E 174°47'0 0.0
2015-Apr-15 13:31S 36°51' E 174°47'0 0.0
2015-Apr-15 12:31S 36°51' E 174°47'0 0.0
2015-Apr-15 11:28S 36°51' E 174°47'0 0.0
2015-Apr-15 10:31S 36°51' E 174°47'0 0.0
2015-Apr-15 09:31S 36°51' E 174°47'0 0.0
2015-Apr-15 08:31S 36°51' E 174°47'0 0.0
2015-Apr-15 07:31S 36°51' E 174°47'0 0.0
2015-Apr-15 06:31S 36°51' E 174°47'0 0.0
2015-Apr-15 05:28S 36°51' E 174°47'0 0.0
2015-Apr-15 04:31S 36°51' E 174°47'0 0.0
2015-Apr-15 03:31S 36°51' E 174°47'0 0.0
2015-Apr-15 02:31S 36°51' E 174°47'0 0.0
2015-Apr-15 01:31S 36°51' E 174°47'0 0.0
2015-Apr-15 00:31S 36°51' E 174°47'0 0.0
2015-Apr-14 23:28S 36°51' E 174°47'0 0.0
2015-Apr-14 22:31S 36°51' E 174°47'0 0.0
2015-Apr-14 21:31S 36°51' E 174°47'0 0.0
2015-Apr-14 20:31S 36°51' E 174°47'0 0.0
2015-Apr-14 19:31S 36°51' E 174°47'0 0.0
2015-Apr-14 18:31S 36°51' E 174°47'0 0.0
2015-Apr-14 17:28S 36°51' E 174°47'0 0.0
2015-Apr-14 16:31S 36°51' E 174°47'0 0.0
2015-Apr-14 15:31S 36°51' E 174°47'0 0.0
2015-Apr-14 14:31S 36°51' E 174°47'0 0.0
2015-Apr-14 13:31S 36°51' E 174°47'0 0.0
2015-Apr-14 12:31S 36°51' E 174°47'0 0.0
2015-Apr-14 11:28S 36°51' E 174°47'0 0.1
2015-Apr-14 10:32S 36°51' E 174°47'0 0.0
2015-Apr-14 09:32S 36°51' E 174°47'0 0.0
2015-Apr-14 08:32S 36°51' E 174°47'0 0.0
2015-Apr-14 07:32S 36°51' E 174°47'0 0.0
2015-Apr-14 06:32S 36°51' E 174°47'0 0.0
2015-Apr-14 05:32S 36°51' E 174°47'0 0.0
2015-Apr-14 04:32S 36°51' E 174°47'0 0.0
2015-Apr-14 03:32S 36°51' E 174°47'0 0.0
2015-Apr-14 02:32S 36°51' E 174°47'0 0.0
2015-Apr-14 01:32S 36°51' E 174°47'0 0.0
2015-Apr-14 00:32S 36°51' E 174°47'0 0.0
2015-Apr-13 23:32S 36°51' E 174°47'0 0.0
2015-Apr-13 22:32S 36°51' E 174°47'0 0.0
2015-Apr-13 21:32S 36°51' E 174°47'0 0.0
2015-Apr-13 20:32S 36°51' E 174°47'0 0.0
2015-Apr-13 19:32S 36°51' E 174°47'0 0.0
2015-Apr-13 18:32S 36°51' E 174°47'0 0.0
2015-Apr-13 17:32S 36°51' E 174°47'0 0.0
2015-Apr-13 16:32S 36°51' E 174°47'0 0.0
2015-Apr-13 15:29S 36°51' E 174°47'0 0.0
2015-Apr-13 14:32S 36°51' E 174°47'0 0.0
2015-Apr-13 13:29S 36°51' E 174°47'5 5.8
2015-Apr-13 12:33S 36°46' E 174°49'8 8.4
2015-Apr-13 11:33S 36°39' E 174°56'1413.7
2015-Apr-13 10:34S 36°26' E 175°00'1817.4
2015-Apr-13 09:33S 36°09' E 174°57'  

Dump ship's entire track history